Latest Weather Observations for Gayndah

IDQ60801

Issued at 7:35 pm EST Wednesday 23 April 2014 (issued every 30 minutes, with the page automatically refreshed every 10 minutes)

About weather observations | Map of weather stations | Latest weather observations for QLD | Other Formats
Station Details ID: 039066 Name: GAYNDAH AIRPORT Lat: -25.62 Lon: 151.62 Height: 110.9 m
Data from the previous 72 hours. | See also: Recent months at Gayndah
Date/Time
EST
Temp
°C
App
Temp
°C
Dew
Point
Rel
Hum
%
Delta-T
°C
Wind Press
QNH
hPa
Press
MSL
hPa
Rain
since 9 am
mm
Dir
 
Spd
km/h
Gust
km/h
Spd
kts
Gust
kts
23/07:30pm 22.7 22.9 17.6 73 3.2 NNE 13 19 7 10 1016.9 - 0.0
23/07:00pm 22.1 22.9 17.2 74 3.0 NE 9 13 5 7 1016.6 1016.1 0.0
23/06:30pm 23.0 24.1 17.2 70 3.6 NNE 7 9 4 5 1016.2 - 0.0
23/06:00pm 24.3 23.9 17.1 64 4.5 NNE 15 22 8 12 1015.8 1015.3 0.0
23/05:30pm 25.0 24.7 14.5 52 6.3 NE 9 11 5 6 1015.4 - 0.0
23/05:00pm 26.7 26.8 14.5 47 7.3 N 7 13 4 7 1015.0 1014.5 0.0
23/04:30pm 27.1 26.1 13.4 42 8.1 E 11 15 6 8 1014.8 - 0.0
23/04:00pm 27.6 26.4 13.9 43 8.2 E 13 19 7 10 1014.7 1014.2 0.0
23/03:30pm 26.8 26.8 14.2 46 7.5 ENE 7 9 4 5 1014.7 - 0.0
23/03:00pm 27.4 28.7 15.1 47 7.5 NW 2 6 1 3 1014.8 1014.3 0.0
23/02:30pm 26.3 27.5 15.0 49 6.8 ENE 2 6 1 3 1015.1 - 0.0
23/02:00pm 26.2 26.5 15.0 50 6.8 NE 7 11 4 6 1015.3 1014.8 0.0
23/01:30pm 26.4 26.6 14.8 49 7.0 ENE 7 13 4 7 1015.6 - 0.0
23/01:00pm 26.1 25.7 15.2 51 6.6 NE 11 17 6 9 1016.0 1015.5 0.0
23/12:30pm 27.0 26.8 14.7 47 7.4 NE 9 19 5 10 1016.5 - 0.0
23/12:00pm 26.0 26.7 14.5 49 6.9 E 4 9 2 5 1017.0 1016.5 0.0
23/11:30am 25.9 26.8 16.2 55 6.0 NE 6 9 3 5 1017.7 - 0.0
23/11:00am 25.3 26.1 15.9 56 5.7 E 6 13 3 7 1018.1 1017.7 0.0
23/10:30am 24.5 25.4 16.7 61 4.8 N 7 11 4 6 1018.7 - 0.0
23/10:00am 24.0 25.6 17.0 65 4.3 NE 4 7 2 4 1018.9 1018.5 0.0
23/09:30am 22.7 25.1 16.9 70 3.6 CALM 0 4 0 2 1019.2 - 0.0
23/09:00am 21.0 23.3 16.8 77 2.6 CALM 0 2 0 1 1019.1 1018.7 0.0
23/08:30am 19.6 21.5 16.6 83 1.8 SW 2 6 1 3 1019.2 - 0.0
23/08:00am 18.2 20.0 16.5 90 1.0 WSW 2 4 1 2 1019.0 1018.6 0.0
23/07:30am 17.3 18.5 16.0 92 0.8 WSW 4 6 2 3 1018.8 - 0.0
23/07:00am 16.6 17.8 15.8 95 0.5 WNW 4 6 2 3 1018.7 1018.3 0.0
23/06:30am 16.1 17.7 15.0 93 0.6 CALM 0 0 0 0 1018.2 - 0.0
23/06:00am 16.1 17.8 15.1 94 0.6 NW 0 0 0 0 1018.4 1018.0 0.0
23/05:30am 15.8 17.2 14.5 92 0.7 CALM 0 0 0 0 1018.3 - 0.0
23/05:00am 16.0 17.1 14.7 92 0.7 N 2 4 1 2 1018.5 1018.1 0.0
23/04:30am 15.8 17.1 14.2 90 0.9 CALM 0 0 0 0 1017.9 - 0.0
23/04:00am 16.5 18.1 14.9 90 0.9 CALM 0 0 0 0 1017.7 1017.3 0.0
23/03:30am 16.9 18.6 15.1 89 1.0 CALM 0 0 0 0 1017.9 - 0.0
23/03:00am 16.4 17.9 14.6 89 1.0 CALM 0 0 0 0 1017.8 1017.4 0.0
23/02:30am 16.6 17.9 14.2 86 1.4 CALM 0 0 0 0 1018.1 - 0.0
23/02:00am 17.1 18.6 14.7 86 1.4 CALM 0 0 0 0 1018.4 1018.0 0.0
23/01:30am 17.4 19.0 14.9 85 1.5 CALM 0 0 0 0 1018.6 - 0.0
23/01:00am 17.2 18.6 14.3 83 1.7 CALM 0 0 0 0 1018.8 1018.4 0.0
23/12:30am 17.6 19.0 14.3 81 1.9 CALM 0 0 0 0 1019.0 - 0.0
23/12:00am 18.0 19.5 14.7 81 1.9 SSE 0 0 0 0 1019.2 1018.8 0.0
 
Date/Time
EST
Temp
°C
App
Temp
°C
Dew
Point
Rel
Hum
%
Delta-T
°C
Wind Press
QNH
hPa
Press
MSL
hPa
Rain
since 9 am
mm
Dir
 
Spd
km/h
Gust
km/h
Spd
kts
Gust
kts
22/11:30pm 18.2 19.6 14.5 79 2.1 CALM 0 0 0 0 1019.4 - 0.0
22/11:00pm 18.4 19.8 14.3 77 2.4 CALM 0 4 0 2 1019.5 1019.1 0.0
22/10:30pm 18.8 20.2 14.3 75 2.6 CALM 0 0 0 0 1019.6 - 0.0
22/10:00pm 19.7 21.1 14.5 72 3.0 CALM 0 0 0 0 1019.7 1019.3 0.0
22/09:30pm 20.0 20.8 14.8 72 3.1 SSE 4 6 2 3 1019.6 - 0.0
22/09:00pm 20.3 20.9 14.2 68 3.5 NNE 4 7 2 4 1019.5 1019.1 0.0
22/08:30pm 20.1 20.2 13.8 67 3.6 NE 6 7 3 4 1019.4 - 0.0
22/08:00pm 20.9 20.4 13.8 64 4.1 NE 9 11 5 6 1019.2 1018.8 0.0
22/07:30pm 21.2 21.0 13.6 62 4.4 NE 7 9 4 5 1018.9 - 0.0
22/07:00pm 21.9 21.8 13.3 58 5.0 NE 6 7 3 4 1018.4 1018.0 0.0
22/06:30pm 22.1 21.8 13.2 57 5.1 ENE 7 9 4 5 1018.1 - 0.0
22/06:00pm 23.2 23.0 13.1 53 5.8 NE 6 7 3 4 1018.0 1017.6 0.0
22/05:30pm 24.3 24.1 12.9 49 6.6 NE 6 7 3 4 1017.8 - 0.0
22/05:00pm 25.5 25.3 13.0 46 7.3 NNE 6 9 3 5 1017.6 1017.2 0.0
22/04:30pm 26.4 25.3 12.1 41 8.3 N 9 15 5 8 1017.3 - 0.0
22/04:00pm 27.3 25.9 12.1 39 8.8 NNE 11 19 6 10 1017.2 1016.8 0.0
22/03:30pm 27.6 26.1 12.0 38 9.1 NNE 11 20 6 11 1017.2 - 0.0
22/03:00pm 27.3 26.8 12.5 40 8.6 NNW 7 19 4 10 1017.5 1017.1 0.0
22/02:30pm 27.6 26.3 12.4 39 8.9 NNE 11 15 6 8 1017.7 - 0.0
22/02:00pm 27.6 26.9 12.0 38 9.0 N 7 17 4 9 1017.8 1017.4 0.0
22/01:30pm 26.8 26.4 12.5 41 8.3 N 6 15 3 8 1018.4 - 0.0
22/01:00pm 25.5 25.4 13.4 47 7.1 N 6 9 3 5 1018.7 1018.3 0.0
22/12:30pm 25.6 25.4 13.5 47 7.1 N 7 15 4 8 1019.0 - 0.0
22/12:00pm 25.6 24.9 13.1 46 7.3 N 9 15 5 8 1019.7 1019.3 0.0
22/11:30am 24.7 24.3 13.0 48 6.8 N 7 13 4 7 1020.2 - 0.0
22/11:00am 25.7 26.2 13.9 48 7.0 NW 4 15 2 8 1020.7 1020.3 0.0
22/10:30am 24.4 23.9 12.7 48 6.8 N 7 11 4 6 1021.2 - 0.0
22/10:00am 24.9 24.4 13.8 50 6.5 ENE 9 15 5 8 1021.4 1021.0 0.0
22/09:30am 23.6 24.3 14.6 57 5.4 NNW 4 9 2 5 1021.5 - 0.0
22/09:00am 22.1 23.0 15.0 64 4.2 NE 4 7 2 4 1021.5 1021.1 0.0
22/08:30am 19.8 20.2 14.8 73 2.9 NE 6 7 3 4 1021.3 - 0.0
22/08:00am 18.2 19.1 14.1 77 2.4 NNE 2 4 1 2 1021.1 1020.7 0.0
22/07:30am 15.6 16.7 13.6 88 1.1 CALM 0 0 0 0 1021.4 - 0.0
22/07:00am 14.1 15.0 12.8 92 0.7 CALM 0 2 0 1 1021.3 1020.9 0.0
22/06:30am 13.2 12.7 11.9 92 0.7 SSE 6 7 3 4 1021.0 - 0.0
22/06:00am 13.1 13.8 12.3 95 0.4 CALM 0 0 0 0 1020.5 1020.1 0.0
22/05:30am 13.2 13.6 12.4 95 0.4 SSE 2 4 1 2 1020.6 - 0.0
22/05:00am 13.2 13.1 12.1 93 0.6 S 4 4 2 2 1020.4 1020.0 0.0
22/04:30am 13.5 13.9 12.6 94 0.5 S 2 4 1 2 1020.3 - 0.0
22/04:00am 13.6 14.4 12.5 93 0.6 CALM 0 0 0 0 1020.2 1019.8 0.0
22/03:30am 14.4 15.4 13.3 93 0.6 CALM 0 0 0 0 1019.9 - 0.0
22/03:00am 14.6 15.6 13.1 91 0.8 CALM 0 0 0 0 1019.9 1019.5 0.0
22/02:30am 14.8 15.8 13.2 90 0.9 CALM 0 0 0 0 1019.9 - 0.0
22/02:00am 15.3 16.3 13.3 88 1.1 CALM 0 0 0 0 1019.9 1019.5 0.0
22/01:30am 15.6 16.6 13.3 86 1.3 CALM 0 0 0 0 1020.2 - 0.0
22/01:00am 15.5 16.5 13.3 87 1.2 CALM 0 0 0 0 1020.4 1020.0 0.0
22/12:30am 15.9 17.0 13.6 86 1.3 CALM 0 0 0 0 1020.5 - 0.0
22/12:00am 15.9 16.8 13.0 83 1.6 CALM 0 2 0 1 1020.5 1020.1 0.0
 
Date/Time
EST
Temp
°C
App
Temp
°C
Dew
Point
Rel
Hum
%
Delta-T
°C
Wind Press
QNH
hPa
Press
MSL
hPa
Rain
since 9 am
mm
Dir
 
Spd
km/h
Gust
km/h
Spd
kts
Gust
kts
21/11:30pm 16.6 16.9 13.5 82 1.8 E 4 6 2 3 1020.7 - 0.0
21/11:00pm 16.9 16.8 13.2 79 2.1 E 6 6 3 3 1020.8 1020.4 0.0
21/10:30pm 17.5 17.7 13.2 76 2.4 ENE 4 6 2 3 1020.9 - 0.0
21/10:00pm 18.6 19.7 13.5 72 2.9 CALM 0 0 0 0 1020.9 1020.5 0.0
21/09:30pm 18.9 18.7 13.1 69 3.3 E 6 7 3 4 1020.7 - 0.0
21/09:00pm 19.9 20.2 13.4 66 3.7 ENE 4 4 2 2 1020.8 1020.4 0.0
21/08:30pm 20.6 20.3 13.3 63 4.2 NE 7 11 4 6 1020.7 - 0.0
21/08:00pm 20.6 19.9 13.1 62 4.3 ENE 9 11 5 6 1020.3 1019.9 0.0
21/07:30pm 22.4 21.3 13.2 56 5.3 NE 11 17 6 9 1019.9 - 0.0
21/07:00pm 22.5 21.7 13.0 55 5.5 NE 9 13 5 7 1019.4 1019.0 0.0
21/06:30pm 22.8 22.0 11.8 50 6.2 ENE 7 9 4 5 1018.9 - 0.0
21/06:00pm 23.6 22.3 11.3 46 6.9 ENE 9 9 5 5 1018.2 1017.8 0.0
21/05:30pm 25.8 23.5 10.4 38 8.6 ENE 13 19 7 10 1017.8 - 0.0
21/05:00pm 27.6 26.0 10.3 34 9.7 NE 9 15 5 8 1017.8 1017.4 0.0
21/04:30pm 27.4 26.5 11.4 37 9.2 NNE 7 13 4 7 1017.4 - 0.0
21/04:00pm 27.5 27.0 12.7 40 8.7 NE 7 11 4 6 1017.4 1017.0 0.0
21/03:30pm 28.3 27.4 12.6 38 9.2 NNE 9 17 5 9 1017.3 - 0.0
21/03:00pm 28.5 27.3 12.8 38 9.2 N 11 19 6 10 1017.5 1017.1 0.0
21/02:30pm 27.5 26.6 12.7 40 8.7 N 9 13 5 7 1017.5 - 0.0
21/02:00pm 28.5 28.3 13.6 40 8.9 NNE 7 13 4 7 1017.8 1017.4 0.0
21/01:30pm 27.0 26.6 13.0 42 8.2 N 7 15 4 8 1018.1 - 0.0
21/01:00pm 27.7 27.0 13.3 41 8.5 N 9 17 5 9 1018.5 1018.1 0.0
21/12:30pm 26.6 26.2 13.0 43 8.0 NE 7 17 4 9 1019.0 - 0.0
21/12:00pm 27.1 26.9 13.1 42 8.2 NE 6 11 3 6 1019.6 1019.2 0.0
21/11:30am 25.6 25.5 13.8 48 7.0 NNW 7 15 4 8 1020.0 - 0.0
21/11:00am 25.8 25.8 14.3 49 6.9 N 7 15 4 8 1020.6 1020.2 0.0
21/10:30am 25.7 25.4 15.4 53 6.3 NE 11 17 6 9 1020.8 - 0.0
21/10:00am 24.4 25.3 15.1 56 5.6 NE 4 9 2 5 1021.1 1020.7 0.0
21/09:30am 23.9 25.8 15.7 60 5.0 CALM 0 0 0 0 1021.2 - 0.0
21/09:00am 21.7 23.1 15.3 67 3.8 NNE 2 4 1 2 1021.2 1020.8 0.0
21/08:30am 20.4 22.2 15.4 73 3.0 CALM 0 0 0 0 1021.2 - 0.0
21/08:00am 18.4 19.8 14.3 77 2.4 CALM 0 0 0 0 1021.0 1020.6 0.0
21/07:30am 16.8 18.1 14.1 84 1.5 CALM 0 0 0 0 1020.8 - 0.0
21/07:00am 14.7 15.7 13.2 91 0.8 CALM 0 2 0 1 1020.5 1020.1 0.0
21/06:30am 13.1 13.8 12.3 95 0.4 CALM 0 0 0 0 1020.2 - 0.0
21/06:00am 12.7 12.9 11.9 95 0.4 W 2 4 1 2 1019.9 1019.5 0.0
21/05:30am 12.8 12.7 12.0 95 0.4 W 4 4 2 2 1019.5 - 0.0
21/05:00am 13.3 13.4 12.7 96 0.3 W 4 6 2 3 1019.3 1018.9 0.0
21/04:30am 13.1 13.1 12.3 95 0.4 W 4 6 2 3 1019.0 - 0.0
21/04:00am 13.7 14.6 12.8 94 0.5 CALM 0 0 0 0 1018.7 1018.3 0.0
21/03:30am 13.6 14.3 12.3 92 0.7 CALM 0 0 0 0 1018.4 - 0.0
21/03:00am 13.4 13.9 11.6 89 1.0 CALM 0 0 0 0 1018.3 1017.9 0.0
21/02:30am 14.6 15.7 13.5 93 0.6 CALM 0 0 0 0 1018.3 - 0.0
21/02:00am 14.3 15.1 12.7 90 0.9 CALM 0 0 0 0 1018.3 1017.9 0.0
21/01:30am 14.8 15.2 12.5 86 1.3 W 2 4 1 2 1018.4 - 0.0
21/01:00am 14.8 15.1 12.1 84 1.5 WSW 2 4 1 2 1018.5 1018.1 0.0
21/12:30am 16.1 16.9 12.7 80 1.9 CALM 0 0 0 0 1018.6 - 0.0
21/12:00am 15.2 15.9 12.2 82 1.6 CALM 0 0 0 0 1018.5 1018.1 0.0
 
Date/Time
EST
Temp
°C
App
Temp
°C
Dew
Point
Rel
Hum
%
Delta-T
°C
Wind Press
QNH
hPa
Press
MSL
hPa
Rain
since 9 am
mm
Dir
 
Spd
km/h
Gust
km/h
Spd
kts
Gust
kts
20/11:30pm 15.8 16.5 12.2 79 2.0 CALM 0 0 0 0 1018.5 - 0.0
20/11:00pm 16.1 16.8 12.1 77 2.2 CALM 0 0 0 0 1018.6 1018.2 0.0
20/10:30pm 16.9 17.6 12.2 74 2.6 CALM 0 0 0 0 1018.6 - 0.0
20/10:00pm 17.1 17.0 12.0 72 2.8 E 4 6 2 3 1018.6 1018.2 0.0
20/09:30pm 17.9 18.1 11.9 68 3.3 SE 2 6 1 3 1018.5 - 0.0
20/09:00pm 18.6 18.6 11.2 62 4.0 SE 2 4 1 2 1018.4 1018.0 0.0
20/08:30pm 19.5 19.9 11.3 59 4.5 CALM 0 0 0 0 1018.3 - 0.0
20/08:00pm 19.6 18.7 11.4 59 4.5 E 7 11 4 6 1017.9 1017.5 0.0

Other Formats:

Comma delimited format used in spreadsheet applications
http://www.bom.gov.au/fwo/IDQ60801/IDQ60801.95543.axf

JavaScript Object Notation format (JSON) in row-major order
http://www.bom.gov.au/fwo/IDQ60801/IDQ60801.95543.json